Terminal Aerodrome Forecast
Issued by NWS

Home | Current Version | Previous Version | Text Only | Print | Product List | Glossary On
Versions: 1 2 3 4 5 6 7 8 9 10 11 12 13 14 15
000
FTUS45 KTFX 260527
TAFGTF
TAF
KGTF 260527Z 2606/2706 03010KT P6SM SCT040 BKN070
      TEMPO 2608/2610 BKN025
     FM261000 03010KT P6SM VCSH SCT015 OVC025
      TEMPO 2611/2615 -RA BKN015
     FM261600 09007KT P6SM VCSH SCT025 OVC060
     FM262100 12007KT P6SM SCT050 BKN090
     FM270100 19008KT P6SM SCT120=

USA.gov is the U.S. government's official web portal to all federal, state and local government web resources and services.